createdAt,value
2023-02-11T00:02:22.539Z,47.47
2023-02-11T00:04:48.976Z,34.33
2023-02-11T00:07:15.256Z,24.45
2023-02-11T00:09:41.547Z,39.35
2023-02-11T00:12:07.848Z,53.25
2023-02-11T00:14:34.109Z,30.92
2023-02-11T00:17:00.452Z,50.55
2023-02-11T00:19:26.798Z,51.75
2023-02-11T00:21:53.108Z,61.50
2023-02-11T00:24:19.375Z,38.13
2023-02-11T00:26:45.648Z,35.60
2023-02-11T00:29:11.989Z,44.00
2023-02-11T00:31:38.404Z,49.38
2023-02-11T00:34:04.737Z,47.55
2023-02-11T00:36:31.383Z,38.70
2023-02-11T00:38:58.385Z,44.90
2023-02-11T00:41:25.201Z,50.33
2023-02-11T00:43:52.056Z,54.63
2023-02-11T00:46:18.445Z,50.30
2023-02-11T00:48:44.786Z,41.50
2023-02-11T00:51:11.790Z,35.92
2023-02-11T00:53:38.598Z,55.38
2023-02-11T00:56:05.432Z,43.80
2023-02-11T00:58:31.727Z,52.10
2023-02-11T01:00:58.446Z,36.33
2023-02-11T01:03:25.080Z,36.50
2023-02-11T01:05:51.750Z,48.47
2023-02-11T01:08:18.766Z,46.83
2023-02-11T01:10:45.139Z,36.60
2023-02-11T01:13:11.539Z,41.40
2023-02-11T01:15:37.921Z,36.90
2023-02-11T01:18:05.373Z,38.38
2023-02-11T01:20:31.809Z,41.53
2023-02-11T01:22:58.087Z,41.75
2023-02-11T01:25:24.447Z,50.17
2023-02-11T01:27:50.752Z,57.58
2023-02-11T01:30:17.143Z,56.55
2023-02-11T01:32:43.437Z,53.58
2023-02-11T01:35:10.149Z,54.88
2023-02-11T01:37:36.848Z,42.30
2023-02-11T01:40:07.443Z,56.92
2023-02-11T01:42:33.789Z,43.15
2023-02-11T01:45:01.652Z,45.83
2023-02-11T01:47:27.948Z,30.52
2023-02-11T01:49:57.861Z,50.20
2023-02-11T01:52:32.001Z,37.28
2023-02-11T01:55:08.510Z,48.67
2023-02-11T01:57:38.057Z,49.92
2023-02-11T02:00:14.307Z,46.38
2023-02-11T02:03:02.860Z,57.63
2023-02-11T02:05:36.944Z,44.00
2023-02-11T02:08:22.049Z,52.40
2023-02-11T02:10:51.343Z,42.80
2023-02-11T02:13:17.634Z,42.67
2023-02-11T02:16:06.693Z,36.00
2023-02-11T02:18:52.691Z,39.65
2023-02-11T02:21:43.893Z,50.40
2023-02-11T02:24:20.203Z,46.45
2023-02-11T02:27:07.680Z,54.92
2023-02-11T02:29:50.145Z,36.72
2023-02-11T02:32:44.255Z,47.65
2023-02-11T02:35:23.525Z,55.78
2023-02-11T02:38:13.180Z,47.20
2023-02-11T02:40:54.748Z,56.08
2023-02-11T02:43:22.658Z,28.50
2023-02-11T02:45:49.459Z,44.22
2023-02-11T02:48:33.443Z,53.20
2023-02-11T02:51:21.312Z,36.17
2023-02-11T02:53:58.162Z,59.65
2023-02-11T02:56:29.989Z,44.22
2023-02-11T02:59:04.200Z,47.88
2023-02-11T03:01:49.084Z,50.30
2023-02-11T03:04:27.047Z,54.78
2023-02-11T03:07:10.514Z,60.58
2023-02-11T03:09:44.861Z,39.33
2023-02-11T03:12:13.474Z,54.92
2023-02-11T03:14:41.465Z,36.60
2023-02-11T03:17:09.686Z,43.97
2023-02-11T03:19:39.374Z,48.10
2023-02-11T03:22:11.605Z,53.63
2023-02-11T03:24:41.090Z,39.63
2023-02-11T03:27:28.985Z,45.30
2023-02-11T03:30:10.234Z,49.80
2023-02-11T03:32:41.158Z,51.03
2023-02-11T03:35:09.958Z,55.53
2023-02-11T03:37:45.069Z,27.63
2023-02-11T03:40:15.591Z,54.85
2023-02-11T03:42:50.843Z,56.80
2023-02-11T03:45:21.461Z,54.30
2023-02-11T03:47:53.305Z,35.70
2023-02-11T03:50:21.488Z,63.70
2023-02-11T03:52:49.414Z,53.28
2023-02-11T03:55:18.380Z,54.83
2023-02-11T03:57:45.041Z,56.30
2023-02-11T04:00:12.369Z,49.65
2023-02-11T04:02:39.940Z,52.00
2023-02-11T04:05:08.064Z,52.47
2023-02-11T04:07:34.519Z,38.90
2023-02-11T04:10:01.028Z,47.97
2023-02-11T04:12:27.389Z,50.38
2023-02-11T04:14:53.706Z,52.33
2023-02-11T04:17:20.037Z,35.85
2023-02-11T04:19:46.363Z,53.45
2023-02-11T04:22:12.682Z,53.83
2023-02-11T04:24:39.341Z,58.15
2023-02-11T04:27:05.621Z,52.97
2023-02-11T04:29:31.951Z,43.80
2023-02-11T04:31:58.329Z,51.78
2023-02-11T04:34:24.698Z,45.55
2023-02-11T04:36:51.263Z,62.67
2023-02-11T04:39:17.564Z,49.25
2023-02-11T04:41:43.883Z,40.67
2023-02-11T04:44:10.341Z,51.70
2023-02-11T04:46:36.944Z,56.08
2023-02-11T04:49:03.634Z,49.20
2023-02-11T04:51:30.134Z,59.35
2023-02-11T04:53:56.484Z,54.45
2023-02-11T04:56:22.845Z,48.53
2023-02-11T04:58:49.139Z,48.25
2023-02-11T05:01:16.159Z,38.60
2023-02-11T05:03:42.933Z,51.67
2023-02-11T05:06:10.182Z,53.38
2023-02-11T05:08:36.549Z,57.60
2023-02-11T05:11:02.909Z,40.10
2023-02-11T05:13:29.580Z,65.25
2023-02-11T05:15:56.035Z,53.03
2023-02-11T05:18:22.550Z,67.53
2023-02-11T05:20:48.886Z,49.20
2023-02-11T05:23:15.152Z,75.00
2023-02-11T05:25:41.425Z,70.90
2023-02-11T05:28:07.949Z,60.10
2023-02-11T05:30:34.465Z,73.45
2023-02-11T05:33:00.748Z,65.55
2023-02-11T05:35:27.032Z,61.80
2023-02-11T05:37:53.299Z,75.47
2023-02-11T05:40:19.674Z,62.15
2023-02-11T05:42:45.971Z,58.72
2023-02-11T05:45:12.268Z,57.30
2023-02-11T05:47:38.530Z,63.53
2023-02-11T05:50:05.099Z,74.65
2023-02-11T05:52:31.390Z,82.50
2023-02-11T05:54:57.779Z,53.13
2023-02-11T05:57:24.056Z,43.75
2023-02-11T05:59:50.379Z,62.60
2023-02-11T06:02:16.760Z,57.35
2023-02-11T06:04:43.075Z,57.15
2023-02-11T06:07:09.392Z,77.25
2023-02-11T06:09:36.912Z,79.63
2023-02-11T06:12:04.586Z,70.43
2023-02-11T06:14:33.142Z,62.78
2023-02-11T06:16:59.667Z,66.20
2023-02-11T06:19:26.157Z,42.25
2023-02-11T06:21:52.451Z,73.22
2023-02-11T06:24:33.144Z,82.43
2023-02-11T06:27:05.189Z,65.70
2023-02-11T06:29:31.546Z,61.33
2023-02-11T06:31:58.164Z,95.43
2023-02-11T06:34:24.521Z,53.88
2023-02-11T06:36:50.824Z,78.00
2023-02-11T06:39:17.164Z,73.45
2023-02-11T06:41:43.458Z,44.58
2023-02-11T06:44:09.722Z,70.40
2023-02-11T06:46:36.078Z,96.43
2023-02-11T06:49:02.423Z,67.20
2023-02-11T06:51:28.760Z,87.90
2023-02-11T06:53:55.061Z,79.72
2023-02-11T06:56:23.034Z,79.40
2023-02-11T06:58:53.402Z,61.90
2023-02-11T07:01:19.865Z,59.42
2023-02-11T07:03:46.249Z,65.53
2023-02-11T07:06:18.685Z,84.82
2023-02-11T07:08:45.798Z,91.47
2023-02-11T07:11:14.395Z,83.28
2023-02-11T07:13:40.830Z,84.00
2023-02-11T07:16:09.318Z,92.43
2023-02-11T07:18:35.663Z,68.32
2023-02-11T07:21:10.250Z,56.05
2023-02-11T07:23:37.418Z,77.07
2023-02-11T07:26:08.723Z,33.13
2023-02-11T07:28:36.785Z,70.38
2023-02-11T07:31:11.558Z,71.63
2023-02-11T07:33:38.231Z,80.88
2023-02-11T07:36:06.357Z,57.28
2023-02-11T07:38:33.927Z,68.68
2023-02-11T07:43:27.881Z,63.40
2023-02-11T07:45:54.251Z,87.72
2023-02-11T07:48:20.544Z,72.28
2023-02-11T07:50:46.801Z,78.05
2023-02-11T07:53:13.188Z,79.32
2023-02-11T07:55:39.457Z,78.25
2023-02-11T07:58:05.794Z,82.05
2023-02-11T08:00:32.070Z,74.38
2023-02-11T08:02:58.378Z,82.32
2023-02-11T08:05:24.705Z,67.10
2023-02-11T08:07:54.209Z,85.35
2023-02-11T08:10:21.369Z,57.58
2023-02-11T08:12:48.044Z,83.15
2023-02-11T08:15:14.429Z,81.15
2023-02-11T08:17:40.696Z,71.15
2023-02-11T08:20:07.280Z,94.03
2023-02-11T08:22:34.997Z,96.13
2023-02-11T08:25:01.300Z,76.40
2023-02-11T08:27:27.625Z,82.18
2023-02-11T08:29:54.371Z,81.93
2023-02-11T08:32:21.685Z,59.88
2023-02-11T08:34:52.148Z,90.53
2023-02-11T08:37:18.968Z,72.18
2023-02-11T08:39:45.513Z,85.75
2023-02-11T08:42:11.908Z,91.72
2023-02-11T08:44:38.209Z,79.50
2023-02-11T08:47:04.736Z,66.07
2023-02-11T08:49:31.409Z,68.63
2023-02-11T08:51:57.672Z,83.85
2023-02-11T08:54:23.961Z,82.25
2023-02-11T08:56:51.852Z,73.88
2023-02-11T08:59:18.601Z,84.95
2023-02-11T09:01:45.495Z,49.78
2023-02-11T09:04:12.232Z,79.50
2023-02-11T09:06:38.781Z,58.40
2023-02-11T09:09:05.154Z,71.88
2023-02-11T09:11:35.112Z,85.47
2023-02-11T09:14:02.439Z,82.70
2023-02-11T09:16:31.980Z,83.70
2023-02-11T09:18:59.446Z,79.72
2023-02-11T09:21:26.295Z,96.68
2023-02-11T09:23:52.806Z,70.18
2023-02-11T09:26:22.317Z,90.65
2023-02-11T09:28:49.019Z,83.65
2023-02-11T09:31:18.812Z,74.72
2023-02-11T09:33:47.012Z,68.25
2023-02-11T09:36:20.339Z,84.20
2023-02-11T09:38:47.685Z,81.25
2023-02-11T09:41:58.961Z,53.78
2023-02-11T09:44:31.138Z,83.75
2023-02-11T09:47:23.104Z,77.70
2023-02-11T09:52:24.504Z,87.55
2023-02-11T09:55:02.774Z,79.03
2023-02-11T09:57:37.085Z,76.32
2023-02-11T10:00:28.387Z,66.05
2023-02-11T10:03:18.726Z,73.63
2023-02-11T10:05:58.036Z,77.40
2023-02-11T10:08:33.342Z,79.85
2023-02-11T10:11:31.181Z,83.50
2023-02-11T10:14:24.251Z,89.90
2023-02-11T10:17:14.439Z,62.80
2023-02-11T10:20:18.130Z,93.95
2023-02-11T10:22:55.622Z,80.13
2023-02-11T10:25:37.409Z,97.03
2023-02-11T10:28:13.829Z,44.45
2023-02-11T10:30:56.463Z,78.07
2023-02-11T10:33:43.952Z,63.40
2023-02-11T10:36:12.582Z,54.65
2023-02-11T10:38:39.485Z,80.63
2023-02-11T10:41:06.331Z,93.78
2023-02-11T10:43:33.295Z,75.38
2023-02-11T10:46:02.608Z,61.38
2023-02-11T10:48:49.368Z,84.35
2023-02-11T10:51:23.232Z,71.68
2023-02-11T10:54:11.906Z,84.03
2023-02-11T10:56:51.253Z,71.88
2023-02-11T10:59:29.329Z,51.15
2023-02-11T11:02:06.623Z,53.40
2023-02-11T11:04:39.033Z,73.78
2023-02-11T11:07:14.614Z,84.20
2023-02-11T11:09:56.022Z,76.63
2023-02-11T11:12:36.142Z,63.42
2023-02-11T11:15:13.714Z,74.85
2023-02-11T11:17:40.256Z,84.60
2023-02-11T11:20:23.391Z,62.33
2023-02-11T11:22:52.388Z,70.60
2023-02-11T11:25:27.904Z,90.15
2023-02-11T11:27:57.552Z,80.30
2023-02-11T11:30:31.627Z,64.57
2023-02-11T11:32:58.978Z,68.00
2023-02-11T11:35:30.857Z,56.55
2023-02-11T11:38:02.151Z,70.05
2023-02-11T11:40:34.045Z,64.40
2023-02-11T11:43:14.427Z,61.80
2023-02-11T11:45:56.367Z,51.53
2023-02-11T11:48:28.480Z,74.40
2023-02-11T11:51:15.006Z,61.78
2023-02-11T11:53:51.016Z,58.13
2023-02-11T11:56:22.499Z,52.90
2023-02-11T11:58:50.078Z,57.22
2023-02-11T12:04:23.779Z,53.03
2023-02-11T12:07:07.495Z,43.05
2023-02-11T12:09:58.395Z,57.00
2023-02-11T12:12:45.837Z,45.25
2023-02-11T12:15:32.914Z,58.63
2023-02-11T12:18:20.192Z,49.15
2023-02-11T12:20:52.784Z,55.85
2023-02-11T12:23:54.741Z,50.58
2023-02-11T12:26:40.469Z,55.03
2023-02-11T12:29:25.067Z,49.33
2023-02-11T12:32:17.485Z,51.97
2023-02-11T12:34:52.596Z,50.42
2023-02-11T12:37:27.736Z,46.70
2023-02-11T12:40:22.728Z,49.28
2023-02-11T12:43:06.170Z,36.42
2023-02-11T12:45:50.640Z,57.15
2023-02-11T12:48:28.980Z,52.97
2023-02-11T12:51:32.949Z,26.55
2023-02-11T12:54:18.324Z,45.83
2023-02-11T12:56:55.220Z,57.25
2023-02-11T12:59:34.376Z,56.20
2023-02-11T13:02:10.178Z,54.80
2023-02-11T13:04:46.258Z,38.58
2023-02-11T13:07:23.400Z,48.58
2023-02-11T13:10:03.116Z,55.13
2023-02-11T13:15:03.077Z,50.53
2023-02-11T13:17:39.960Z,56.40
2023-02-11T13:20:26.527Z,56.95
2023-02-11T13:23:20.569Z,59.35
2023-02-11T13:25:53.961Z,54.30
2023-02-11T13:28:40.090Z,48.45
2023-02-11T13:31:07.162Z,48.88
2023-02-11T13:33:38.146Z,50.33
2023-02-11T13:36:04.885Z,43.13
2023-02-11T13:38:32.629Z,53.17
2023-02-11T13:41:34.396Z,41.53
2023-02-11T13:44:08.316Z,56.95
2023-02-11T13:46:56.650Z,51.63
2023-02-11T13:49:27.689Z,48.05
2023-02-11T13:51:55.298Z,45.55
2023-02-11T13:54:34.415Z,30.63
2023-02-11T13:57:19.499Z,48.25
2023-02-11T13:59:51.516Z,36.33
2023-02-11T14:02:23.137Z,37.45
2023-02-11T14:05:20.453Z,42.72
2023-02-11T14:08:11.633Z,38.65
2023-02-11T14:10:40.858Z,30.55
2023-02-11T14:13:32.958Z,26.25
2023-02-11T14:16:11.520Z,36.35
2023-02-11T14:18:57.443Z,42.20
2023-02-11T14:21:26.489Z,38.22
2023-02-11T14:24:13.737Z,42.95
2023-02-11T14:27:07.134Z,45.65
2023-02-11T14:29:44.955Z,39.25
2023-02-11T14:32:43.589Z,57.88
2023-02-11T14:35:26.339Z,45.47
2023-02-11T14:38:00.802Z,33.33
2023-02-11T14:40:48.012Z,41.25
2023-02-11T14:43:23.095Z,37.58
2023-02-11T14:45:55.477Z,24.70
2023-02-11T14:48:29.292Z,35.35
2023-02-11T14:51:15.943Z,41.55
2023-02-11T14:53:49.456Z,42.72
2023-02-11T14:56:19.510Z,38.95
2023-02-11T14:58:47.406Z,27.77
2023-02-11T15:01:27.621Z,34.88
2023-02-11T15:03:54.007Z,38.08
2023-02-11T15:06:26.590Z,40.78
2023-02-11T15:09:17.706Z,30.42
2023-02-11T15:11:47.399Z,33.97
2023-02-11T15:14:31.873Z,32.42
2023-02-11T15:17:01.147Z,31.02
2023-02-11T15:19:41.213Z,32.72
2023-02-11T15:22:17.973Z,32.85
2023-02-11T15:24:44.335Z,29.45
2023-02-11T15:27:13.390Z,31.20
2023-02-11T15:29:45.718Z,35.00
2023-02-11T15:32:23.600Z,32.17
2023-02-11T15:34:52.594Z,32.15
2023-02-11T15:37:24.046Z,26.83
2023-02-11T15:39:51.281Z,26.10
2023-02-11T15:42:22.753Z,31.83
2023-02-11T15:45:07.586Z,28.05
2023-02-11T15:47:34.168Z,34.22
2023-02-11T15:50:00.500Z,31.63
2023-02-11T15:52:28.222Z,28.88
2023-02-11T15:54:57.926Z,30.70
2023-02-11T15:57:24.211Z,28.60
2023-02-11T15:59:53.091Z,34.08
2023-02-11T16:02:34.059Z,20.65
2023-02-11T16:05:04.695Z,31.92
2023-02-11T16:07:50.507Z,29.25
2023-02-11T16:12:55.678Z,21.65
2023-02-11T16:15:34.039Z,24.77
2023-02-11T16:18:13.375Z,19.70
2023-02-11T16:20:40.065Z,19.80
2023-02-11T16:23:07.485Z,19.90
2023-02-11T16:25:37.359Z,22.35
2023-02-11T16:28:04.176Z,20.63
2023-02-11T16:30:34.973Z,22.27
2023-02-11T16:33:01.268Z,23.48
2023-02-11T16:35:27.574Z,17.27
2023-02-11T16:37:53.854Z,26.83
2023-02-11T16:40:20.252Z,18.02
2023-02-11T16:42:46.552Z,24.25
2023-02-11T16:45:13.616Z,19.58
2023-02-11T16:47:41.848Z,19.92
2023-02-11T16:50:10.607Z,22.48
2023-02-11T16:52:37.244Z,16.75
2023-02-11T16:55:05.086Z,19.88
2023-02-11T16:57:31.638Z,19.55
2023-02-11T16:59:58.353Z,19.75
2023-02-11T17:02:28.317Z,18.20
2023-02-11T17:04:57.779Z,18.40
2023-02-11T17:07:24.134Z,22.90
2023-02-11T17:09:50.849Z,23.45
2023-02-11T17:12:17.209Z,14.73
2023-02-11T17:14:43.600Z,14.93
2023-02-11T17:17:11.205Z,17.40
2023-02-11T17:22:04.495Z,14.45
2023-02-11T17:24:30.878Z,18.27
2023-02-11T17:26:57.271Z,16.88
2023-02-11T17:29:25.080Z,25.90
2023-02-11T17:31:52.657Z,19.48
2023-02-11T17:34:20.105Z,19.58
2023-02-11T17:36:46.421Z,23.73
2023-02-11T17:39:12.976Z,20.92
2023-02-11T17:41:40.306Z,19.75
2023-02-11T17:44:08.010Z,21.58
2023-02-11T17:46:35.365Z,17.65
2023-02-11T17:49:02.428Z,23.23
2023-02-11T17:51:31.767Z,17.95
2023-02-11T17:54:02.370Z,18.77
2023-02-11T17:56:31.884Z,25.05
2023-02-11T17:58:58.170Z,17.23
2023-02-11T18:01:28.086Z,17.17
2023-02-11T18:03:54.463Z,16.58
2023-02-11T18:06:20.764Z,17.63
2023-02-11T18:08:47.621Z,16.25
2023-02-11T18:11:15.441Z,16.65
2023-02-11T18:13:42.973Z,21.33
2023-02-11T18:18:35.673Z,16.98
2023-02-11T18:21:03.544Z,20.40
2023-02-11T18:23:30.397Z,19.55
2023-02-11T18:25:56.673Z,16.63
2023-02-11T18:28:22.981Z,13.57
2023-02-11T18:30:56.524Z,18.45
2023-02-11T18:33:22.915Z,14.60
2023-02-11T18:35:49.571Z,17.38
2023-02-11T18:38:15.923Z,18.13
2023-02-11T18:40:42.353Z,21.42
2023-02-11T18:43:08.625Z,15.57
2023-02-11T18:45:34.985Z,17.73
2023-02-11T18:48:01.417Z,19.88
2023-02-11T18:50:27.891Z,16.77
2023-02-11T18:52:54.181Z,17.98
2023-02-11T18:55:23.485Z,21.40
2023-02-11T18:57:49.908Z,23.45
2023-02-11T19:00:16.647Z,23.80
2023-02-11T19:02:42.932Z,15.80
2023-02-11T19:05:09.287Z,19.60
2023-02-11T19:07:35.713Z,17.35
2023-02-11T19:10:02.071Z,17.20
2023-02-11T19:12:28.365Z,18.58
2023-02-11T19:14:54.657Z,17.77
2023-02-11T19:17:20.963Z,16.50
2023-02-11T19:19:47.307Z,19.92
2023-02-11T19:22:13.584Z,19.13
2023-02-11T19:24:39.876Z,17.35
2023-02-11T19:27:06.158Z,16.45
2023-02-11T19:29:32.647Z,16.08
2023-02-11T19:31:59.237Z,14.63
2023-02-11T19:34:25.528Z,17.42
2023-02-11T19:36:51.960Z,20.77
2023-02-11T19:39:18.237Z,18.88
2023-02-11T19:41:44.551Z,19.90
2023-02-11T19:44:13.532Z,22.60
2023-02-11T19:46:40.305Z,19.85
2023-02-11T19:49:07.279Z,21.00
2023-02-11T19:51:33.872Z,16.10
2023-02-11T19:54:00.506Z,17.08
2023-02-11T19:56:27.332Z,15.35
2023-02-11T19:58:54.064Z,18.67
2023-02-11T20:01:22.020Z,16.65
2023-02-11T20:03:50.211Z,21.88
2023-02-11T20:06:21.981Z,19.10
2023-02-11T20:08:48.239Z,17.20
2023-02-11T20:11:16.577Z,15.20
2023-02-11T20:13:43.864Z,18.02
2023-02-11T20:16:14.727Z,18.58
2023-02-11T20:18:41.263Z,19.98
2023-02-11T20:21:09.345Z,15.85
2023-02-11T20:23:36.837Z,18.40
2023-02-11T20:28:37.146Z,18.90
2023-02-11T20:31:04.450Z,17.38
2023-02-11T20:33:31.993Z,18.02
2023-02-11T20:36:07.330Z,20.65
2023-02-11T20:38:34.152Z,18.98
2023-02-11T20:41:12.562Z,32.42
2023-02-11T20:43:39.019Z,22.58
2023-02-11T20:46:06.564Z,16.67
2023-02-11T20:51:17.756Z,17.48
2023-02-11T20:53:48.306Z,20.13
2023-02-11T20:56:16.003Z,19.65
2023-02-11T20:58:42.407Z,18.65
2023-02-11T21:01:16.263Z,16.50
2023-02-11T21:03:43.785Z,29.70
2023-02-11T21:08:37.695Z,16.33
2023-02-11T21:11:04.151Z,20.83
2023-02-11T21:13:30.440Z,17.10
2023-02-11T21:15:57.302Z,15.23
2023-02-11T21:18:23.862Z,16.80
2023-02-11T21:20:50.488Z,16.23
2023-02-11T21:23:17.032Z,14.68
2023-02-11T21:25:43.324Z,14.25
2023-02-11T21:28:09.641Z,13.38
2023-02-11T21:30:38.409Z,19.40
2023-02-11T21:33:05.785Z,19.40
2023-02-11T21:35:33.678Z,15.27
2023-02-11T21:37:59.967Z,15.70
2023-02-11T21:40:26.495Z,18.23
2023-02-11T21:42:53.494Z,17.83
2023-02-11T21:45:19.787Z,17.73
2023-02-11T21:47:46.155Z,13.77
2023-02-11T21:50:12.564Z,20.63
2023-02-11T21:52:38.859Z,19.23
2023-02-11T21:55:05.565Z,20.40
2023-02-11T21:57:31.892Z,25.23
2023-02-11T21:59:58.172Z,23.80
2023-02-11T22:02:24.485Z,17.67
2023-02-11T22:04:50.960Z,15.15
2023-02-11T22:07:17.383Z,15.45
2023-02-11T22:09:43.673Z,19.15
2023-02-11T22:12:09.948Z,16.67
2023-02-11T22:14:36.763Z,14.45
2023-02-11T22:17:03.933Z,14.73
2023-02-11T22:19:30.329Z,18.02
2023-02-11T22:21:56.622Z,15.32
2023-02-11T22:24:22.916Z,14.93
2023-02-11T22:26:49.188Z,15.07
2023-02-11T22:29:15.483Z,19.80
